Cmb Kristine — VRJF4 — position and weather

sailwx.info

Track history (hours):
 
Tides and Currents Weather Stations Pressure Air Temp Water Temp Dewpoint Dewpoint Depression Visibility Wind Speed Wind Dir Waves Ship Positions

Cmb Kristine

Last reported at 2018-Feb-06 11:24 UTC. Time now 2018-Feb-19 00:12 UTC.
Position S 29°48' E 032°02'.
Warning: this ship's position is 12 days out of date.

Length 180 m; draft 9.8 m.

Type: Cargo ship. MMSI: 477346300.

Date/timePositionNaut miles runAvg speedWind from/ knotsBaromVisibWave heightAir tempDewpointWater temp
2018-Feb-06 11:24S 29°48' E 032°02'4 8.4
2018-Feb-06 10:54S 29°51' E 031°59'3 8.3
2018-Feb-06 10:30S 29°54' E 031°57'4 8.1
2018-Feb-06 10:00S 29°57' E 031°54'4 7.8
2018-Feb-06 09:30S 30°00' E 031°51'4 7.6
2018-Feb-06 09:00S 30°03' E 031°48'4 7.6
2018-Feb-06 08:30S 30°06' E 031°45'4 7.5
2018-Feb-06 08:00S 30°09' E 031°43'8 7.5
2018-Feb-06 07:00S 30°14' E 031°37'4 8.0
2018-Feb-06 06:30S 30°17' E 031°34'4 8.3
2018-Feb-06 05:58S 30°21' E 031°31'4 8.5
2018-Feb-06 05:28S 30°24' E 031°27'4 8.7
2018-Feb-06 04:59S 30°27' E 031°24'12 9.1
2018-Feb-06 03:39S 30°37' E 031°15'  
Track history (hours):
 
Tides and Currents Weather Stations Pressure Air Temp Water Temp Dewpoint Dewpoint Depression Visibility Wind Speed Wind Dir Waves Ship Positions

Cmb Kristine

Last reported at 2018-Feb-06 11:24 UTC. Time now 2018-Feb-19 00:12 UTC.
Position S 29°48' E 032°02'.
Warning: this ship's position is 12 days out of date.

Length 180 m; draft 9.8 m.

Type: Cargo ship. MMSI: 477346300.

Date/timePositionNaut miles runAvg speedWind from/ knotsBaromVisibWave heightAir tempDewpointWater temp
2018-Feb-06 11:24S 29°48' E 032°02'4 8.4
2018-Feb-06 10:54S 29°51' E 031°59'3 8.3
2018-Feb-06 10:30S 29°54' E 031°57'4 8.1
2018-Feb-06 10:00S 29°57' E 031°54'4 7.8
2018-Feb-06 09:30S 30°00' E 031°51'4 7.6
2018-Feb-06 09:00S 30°03' E 031°48'4 7.6
2018-Feb-06 08:30S 30°06' E 031°45'4 7.5
2018-Feb-06 08:00S 30°09' E 031°43'8 7.5
2018-Feb-06 07:00S 30°14' E 031°37'4 8.0
2018-Feb-06 06:30S 30°17' E 031°34'4 8.3
2018-Feb-06 05:58S 30°21' E 031°31'4 8.5
2018-Feb-06 05:28S 30°24' E 031°27'4 8.7
2018-Feb-06 04:59S 30°27' E 031°24'12 9.1
2018-Feb-06 03:39S 30°37' E 031°15'  

Dump ship's entire track history